createdAt,value
2022-11-15T00:00:03.428Z,0.00
2022-11-15T00:01:03.419Z,0.00
2022-11-15T00:02:03.428Z,0.00
2022-11-15T00:03:03.406Z,0.00
2022-11-15T00:04:03.404Z,0.00
2022-11-15T00:05:03.377Z,0.00
2022-11-15T00:06:03.364Z,0.00
2022-11-15T00:07:03.411Z,0.00
2022-11-15T00:08:03.400Z,0.00
2022-11-15T00:09:03.335Z,0.00
2022-11-15T00:10:03.319Z,0.00
2022-11-15T00:11:03.310Z,0.00
2022-11-15T00:12:03.300Z,0.00
2022-11-15T00:13:03.290Z,0.00
2022-11-15T00:14:03.290Z,0.00
2022-11-15T00:15:03.267Z,0.00
2022-11-15T00:16:03.260Z,0.00
2022-11-15T00:17:03.247Z,0.00
2022-11-15T00:18:03.234Z,0.00
2022-11-15T00:19:03.233Z,0.00
2022-11-15T00:20:03.238Z,0.00
2022-11-15T00:21:03.203Z,0.00
2022-11-15T00:22:03.191Z,0.00
2022-11-15T00:23:03.185Z,0.00
2022-11-15T00:24:03.180Z,0.00
2022-11-15T00:25:03.160Z,0.00
2022-11-15T00:26:03.175Z,0.00
2022-11-15T00:27:05.482Z,0.00
2022-11-15T00:28:03.126Z,0.00
2022-11-15T00:29:03.131Z,0.00
2022-11-15T00:30:03.104Z,0.00
2022-11-15T00:31:03.101Z,0.00
2022-11-15T00:32:03.112Z,0.00
2022-11-15T00:33:03.073Z,0.00
2022-11-15T00:34:03.074Z,0.00
2022-11-15T00:35:03.051Z,0.00
2022-11-15T00:36:03.057Z,0.00
2022-11-15T00:37:03.032Z,0.00
2022-11-15T00:38:03.047Z,0.00
2022-11-15T00:39:03.017Z,0.00
2022-11-15T00:40:02.997Z,0.00
2022-11-15T00:41:07.908Z,0.00
2022-11-15T00:42:03.971Z,0.00
2022-11-15T00:43:02.976Z,0.00
2022-11-15T00:44:02.966Z,0.00
2022-11-15T00:45:02.944Z,0.00
2022-11-15T00:46:02.931Z,0.00
2022-11-15T00:47:02.923Z,0.00
2022-11-15T00:48:02.917Z,0.00
2022-11-15T00:49:02.906Z,0.00
2022-11-15T00:50:02.947Z,0.00
2022-11-15T00:51:02.877Z,0.00
2022-11-15T00:52:02.886Z,0.00
2022-11-15T00:53:02.866Z,0.00
2022-11-15T00:54:02.845Z,0.00
2022-11-15T00:55:02.832Z,0.00
2022-11-15T00:56:02.844Z,0.00
2022-11-15T00:57:02.813Z,0.00
2022-11-15T00:58:02.819Z,0.00
2022-11-15T00:59:02.795Z,0.00
2022-11-15T01:00:02.800Z,0.00
2022-11-15T01:01:02.822Z,0.00
2022-11-15T01:02:02.764Z,0.00
2022-11-15T01:03:02.762Z,0.00
2022-11-15T01:04:02.739Z,0.00
2022-11-15T01:05:02.730Z,0.00
2022-11-15T01:06:02.715Z,0.00
2022-11-15T01:07:02.780Z,0.00
2022-11-15T01:08:02.741Z,0.00
2022-11-15T01:09:02.685Z,0.00
2022-11-15T01:10:02.671Z,0.00
2022-11-15T01:11:02.660Z,0.00
2022-11-15T01:12:02.650Z,0.00
2022-11-15T01:13:02.668Z,0.00
2022-11-15T01:14:02.645Z,0.00
2022-11-15T01:15:02.616Z,0.00
2022-11-15T01:16:02.606Z,0.00
2022-11-15T01:17:02.596Z,0.00
2022-11-15T01:18:02.598Z,0.00
2022-11-15T01:19:02.574Z,0.00
2022-11-15T01:20:02.566Z,0.00
2022-11-15T01:21:02.554Z,0.00
2022-11-15T01:22:02.543Z,0.00
2022-11-15T01:23:02.539Z,0.00
2022-11-15T01:24:02.543Z,0.00
2022-11-15T01:25:02.510Z,0.00
2022-11-15T01:26:02.498Z,0.00
2022-11-15T01:27:02.485Z,0.00
2022-11-15T01:28:02.489Z,0.00
2022-11-15T01:29:02.464Z,0.00
2022-11-15T01:30:02.459Z,0.00
2022-11-15T01:31:02.442Z,0.00
2022-11-15T01:32:02.435Z,0.00
2022-11-15T01:33:02.434Z,0.00
2022-11-15T01:34:02.411Z,0.00
2022-11-15T01:35:02.399Z,0.00
2022-11-15T01:36:02.391Z,0.00
2022-11-15T01:37:02.382Z,0.00
2022-11-15T01:38:02.384Z,0.00
2022-11-15T01:39:02.364Z,0.00
2022-11-15T01:40:02.365Z,0.00
2022-11-15T01:41:02.334Z,0.00
2022-11-15T01:42:02.333Z,0.00
2022-11-15T01:43:02.326Z,0.00
2022-11-15T01:44:02.310Z,0.00
2022-11-15T01:45:02.291Z,0.00
2022-11-15T01:46:02.284Z,0.00
2022-11-15T01:47:02.276Z,0.00
2022-11-15T01:48:02.276Z,0.00
2022-11-15T01:49:02.248Z,0.00
2022-11-15T01:50:02.239Z,0.00
2022-11-15T01:51:02.226Z,0.00
2022-11-15T01:52:02.218Z,0.00
2022-11-15T01:53:02.218Z,0.00
2022-11-15T01:54:02.196Z,0.00
2022-11-15T01:55:02.183Z,0.00
2022-11-15T01:56:02.191Z,0.00
2022-11-15T01:57:02.167Z,0.00
2022-11-15T01:58:02.166Z,0.00
2022-11-15T01:59:02.140Z,0.00
2022-11-15T02:00:02.133Z,0.00
2022-11-15T02:01:02.179Z,0.00
2022-11-15T02:02:02.111Z,0.00
2022-11-15T02:03:02.106Z,0.00
2022-11-15T02:04:02.087Z,0.00
2022-11-15T02:05:02.076Z,0.00
2022-11-15T02:06:02.067Z,0.00
2022-11-15T02:07:02.133Z,0.00
2022-11-15T02:08:02.066Z,0.00
2022-11-15T02:09:02.031Z,0.00
2022-11-15T02:10:02.023Z,0.00
2022-11-15T02:11:02.009Z,0.00
2022-11-15T02:12:09.720Z,0.00
2022-11-15T02:13:02.007Z,0.00
2022-11-15T02:14:01.987Z,0.00
2022-11-15T02:15:01.973Z,0.00
2022-11-15T02:16:03.335Z,0.00
2022-11-15T02:17:01.954Z,0.00
2022-11-15T02:18:01.960Z,0.00
2022-11-15T02:19:01.932Z,0.00
2022-11-15T02:20:01.922Z,0.00
2022-11-15T02:21:01.907Z,0.00
2022-11-15T02:22:01.900Z,0.00
2022-11-15T02:23:01.898Z,0.00
2022-11-15T02:24:01.878Z,0.00
2022-11-15T02:25:01.863Z,0.00
2022-11-15T02:26:01.851Z,0.00
2022-11-15T02:27:01.842Z,0.00
2022-11-15T02:28:01.896Z,0.00
2022-11-15T02:29:01.819Z,0.00
2022-11-15T02:30:01.819Z,0.00
2022-11-15T02:31:01.797Z,0.00
2022-11-15T02:32:01.786Z,0.00
2022-11-15T02:33:01.792Z,0.00
2022-11-15T02:34:01.769Z,0.00
2022-11-15T02:35:01.759Z,0.00
2022-11-15T02:36:01.757Z,0.00
2022-11-15T02:37:01.737Z,0.00
2022-11-15T02:38:01.737Z,0.00
2022-11-15T02:39:01.710Z,0.00
2022-11-15T02:40:01.702Z,0.00
2022-11-15T02:41:01.688Z,0.00
2022-11-15T02:42:01.677Z,0.00
2022-11-15T02:43:06.947Z,0.00
2022-11-15T02:44:02.682Z,0.00
2022-11-15T02:45:01.646Z,0.00
2022-11-15T02:46:01.639Z,0.00
2022-11-15T02:47:01.626Z,0.00
2022-11-15T02:48:01.632Z,0.00
2022-11-15T02:49:01.607Z,0.00
2022-11-15T02:50:01.595Z,0.00
2022-11-15T02:51:01.582Z,0.00
2022-11-15T02:52:01.569Z,0.00
2022-11-15T02:53:01.572Z,0.00
2022-11-15T02:54:01.548Z,0.00
2022-11-15T02:55:01.538Z,0.00
2022-11-15T02:56:01.531Z,0.00
2022-11-15T02:57:01.510Z,0.00
2022-11-15T02:58:01.515Z,0.00
2022-11-15T02:59:01.495Z,0.00
2022-11-15T03:00:01.500Z,0.00
2022-11-15T03:01:01.545Z,0.00
2022-11-15T03:02:01.462Z,0.00
2022-11-15T03:03:01.461Z,0.00
2022-11-15T03:04:01.444Z,0.00
2022-11-15T03:05:01.428Z,0.00
2022-11-15T03:06:01.420Z,0.00
2022-11-15T03:07:01.468Z,0.00
2022-11-15T03:08:02.712Z,0.00
2022-11-15T03:09:01.384Z,0.00
2022-11-15T03:10:01.372Z,0.00
2022-11-15T03:11:01.365Z,0.00
2022-11-15T03:12:01.359Z,0.00
2022-11-15T03:13:01.353Z,0.00
2022-11-15T03:14:01.331Z,0.00
2022-11-15T03:15:01.317Z,0.00
2022-11-15T03:16:01.326Z,0.00
2022-11-15T03:17:01.297Z,0.00
2022-11-15T03:18:01.303Z,0.00
2022-11-15T03:19:01.275Z,0.00
2022-11-15T03:20:01.264Z,0.00
2022-11-15T03:21:01.252Z,0.00
2022-11-15T03:22:01.244Z,0.00
2022-11-15T03:23:01.243Z,0.00
2022-11-15T03:24:01.221Z,0.00
2022-11-15T03:25:01.208Z,0.00
2022-11-15T03:26:01.200Z,0.00
2022-11-15T03:27:01.193Z,0.00
2022-11-15T03:28:01.198Z,0.00
2022-11-15T03:29:01.168Z,0.00
2022-11-15T03:30:01.156Z,0.00
2022-11-15T03:31:01.141Z,0.00
2022-11-15T03:32:01.155Z,0.00
2022-11-15T03:33:01.136Z,0.00
2022-11-15T03:34:01.117Z,0.00
2022-11-15T03:35:01.101Z,0.00
2022-11-15T03:36:01.092Z,0.00
2022-11-15T03:37:01.079Z,0.00
2022-11-15T03:38:01.243Z,0.00
2022-11-15T03:39:01.059Z,0.00
2022-11-15T03:40:01.071Z,0.00
2022-11-15T03:41:01.037Z,0.00
2022-11-15T03:42:01.030Z,0.00
2022-11-15T03:43:01.026Z,0.00
2022-11-15T03:44:01.011Z,0.00
2022-11-15T03:45:00.993Z,0.00
2022-11-15T03:46:00.983Z,0.00
2022-11-15T03:47:00.980Z,0.00
2022-11-15T03:48:00.992Z,0.00
2022-11-15T03:49:00.953Z,0.00
2022-11-15T03:50:00.948Z,0.00
2022-11-15T03:51:00.932Z,0.00
2022-11-15T03:52:00.917Z,0.00
2022-11-15T03:53:00.931Z,0.00
2022-11-15T03:54:00.897Z,0.00
2022-11-15T03:55:00.886Z,0.00
2022-11-15T03:56:00.884Z,0.00
2022-11-15T03:57:00.863Z,0.00
2022-11-15T03:58:00.871Z,0.00
2022-11-15T03:59:00.844Z,0.00
2022-11-15T04:00:00.834Z,0.00
2022-11-15T04:01:00.853Z,0.00
2022-11-15T04:02:00.817Z,0.00
2022-11-15T04:03:00.812Z,0.00
2022-11-15T04:04:00.811Z,0.00
2022-11-15T04:05:00.777Z,0.00
2022-11-15T04:06:00.773Z,0.00
2022-11-15T04:07:00.854Z,0.00
2022-11-15T04:08:00.756Z,0.00
2022-11-15T04:09:00.735Z,0.00
2022-11-15T04:10:00.723Z,0.00
2022-11-15T04:11:02.341Z,0.00
2022-11-15T04:12:00.706Z,0.00
2022-11-15T04:13:00.709Z,0.00
2022-11-15T04:14:00.683Z,0.00
2022-11-15T04:15:00.669Z,0.00
2022-11-15T04:16:00.666Z,0.00
2022-11-15T04:17:01.269Z,0.00
2022-11-15T04:18:00.652Z,0.00
2022-11-15T04:19:00.628Z,0.00
2022-11-15T04:20:00.633Z,0.00
2022-11-15T04:21:00.604Z,0.00
2022-11-15T04:22:00.595Z,0.00
2022-11-15T04:23:00.598Z,0.00
2022-11-15T04:24:00.574Z,0.00
2022-11-15T04:25:00.562Z,0.00
2022-11-15T04:26:00.550Z,0.00
2022-11-15T04:27:00.540Z,0.00
2022-11-15T04:28:00.547Z,0.00
2022-11-15T04:29:00.516Z,0.00
2022-11-15T04:30:00.544Z,0.00
2022-11-15T04:31:00.497Z,0.00
2022-11-15T04:32:00.484Z,0.00
2022-11-15T04:33:00.525Z,0.00
2022-11-15T04:34:00.463Z,0.00
2022-11-15T04:35:00.451Z,0.00
2022-11-15T04:36:00.460Z,0.00
2022-11-15T04:37:00.430Z,0.00
2022-11-15T04:38:00.438Z,0.00
2022-11-15T04:39:00.414Z,0.00
2022-11-15T04:40:00.400Z,0.00
2022-11-15T04:41:00.387Z,0.00
2022-11-15T04:42:00.376Z,0.00
2022-11-15T04:43:03.904Z,0.00
2022-11-15T04:44:00.357Z,0.00
2022-11-15T04:45:00.354Z,0.00
2022-11-15T04:46:00.333Z,0.00
2022-11-15T04:47:00.326Z,0.00
2022-11-15T04:48:00.330Z,0.00
2022-11-15T04:49:00.301Z,0.00
2022-11-15T04:50:00.320Z,0.00
2022-11-15T04:51:00.281Z,0.00
2022-11-15T04:52:00.285Z,0.00
2022-11-15T04:53:00.276Z,0.00
2022-11-15T04:54:00.248Z,0.00
2022-11-15T04:55:05.072Z,0.00
2022-11-15T04:56:01.224Z,0.00
2022-11-15T04:57:00.215Z,0.00
2022-11-15T04:58:00.214Z,0.00
2022-11-15T04:59:00.194Z,0.00
2022-11-15T05:00:00.195Z,0.00
2022-11-15T05:01:00.268Z,0.00
2022-11-15T05:02:00.160Z,0.00
2022-11-15T05:03:00.163Z,0.00
2022-11-15T05:04:00.143Z,0.00
2022-11-15T05:05:00.125Z,0.00
2022-11-15T05:06:00.116Z,0.00
2022-11-15T05:07:00.206Z,0.00
2022-11-15T05:08:00.119Z,0.00
2022-11-15T05:09:00.088Z,0.00
2022-11-15T05:10:00.073Z,0.00
2022-11-15T05:11:00.066Z,0.00
2022-11-15T05:12:00.052Z,0.00
2022-11-15T05:13:00.051Z,0.00
2022-11-15T05:14:00.042Z,0.00
2022-11-15T05:15:00.021Z,0.00
2022-11-15T05:16:00.006Z,0.00
2022-11-15T05:17:00.013Z,0.00
2022-11-15T05:18:00.015Z,0.00
2022-11-15T05:18:59.980Z,0.00
2022-11-15T05:19:59.968Z,0.00
2022-11-15T05:20:59.953Z,0.00
2022-11-15T05:21:59.941Z,0.00
2022-11-15T05:22:59.948Z,0.00
2022-11-15T05:24:00.030Z,0.00
2022-11-15T05:24:59.910Z,0.00
2022-11-15T05:26:01.247Z,0.00
2022-11-15T05:26:59.888Z,0.00
2022-11-15T05:27:59.916Z,0.00
2022-11-15T05:28:59.878Z,0.00
2022-11-15T05:29:59.861Z,0.00
2022-11-15T05:30:59.866Z,0.00
2022-11-15T05:31:59.832Z,0.00
2022-11-15T05:32:59.838Z,0.00
2022-11-15T05:33:59.814Z,0.00
2022-11-15T05:34:59.801Z,0.00
2022-11-15T05:35:59.789Z,0.00
2022-11-15T05:36:59.779Z,0.00
2022-11-15T05:37:59.779Z,0.00
2022-11-15T05:38:59.758Z,0.00
2022-11-15T05:39:59.761Z,4.00
2022-11-15T05:40:59.736Z,0.00
2022-11-15T05:41:59.727Z,0.00
2022-11-15T05:42:59.729Z,0.00
2022-11-15T05:43:59.705Z,4.00
2022-11-15T05:44:59.693Z,0.00
2022-11-15T05:45:59.680Z,0.00
2022-11-15T05:46:59.672Z,0.00
2022-11-15T05:47:59.674Z,0.00
2022-11-15T05:48:59.649Z,0.00
2022-11-15T05:49:59.640Z,0.00
2022-11-15T05:50:59.629Z,4.00
2022-11-15T05:51:59.623Z,4.00
2022-11-15T05:53:03.722Z,4.00
2022-11-15T05:54:00.595Z,4.00
2022-11-15T05:54:59.589Z,4.00
2022-11-15T05:55:59.593Z,8.00
2022-11-15T05:56:59.568Z,4.00
2022-11-15T05:57:59.554Z,8.00
2022-11-15T05:59:00.156Z,12.00
2022-11-15T05:59:59.535Z,12.00
2022-11-15T06:00:59.519Z,12.00
2022-11-15T06:01:59.548Z,16.00
2022-11-15T06:02:59.500Z,20.00
2022-11-15T06:03:59.502Z,20.00
2022-11-15T06:04:59.480Z,20.00
2022-11-15T06:05:59.464Z,28.00
2022-11-15T06:06:59.519Z,32.00
2022-11-15T06:07:59.445Z,32.00
2022-11-15T06:08:59.489Z,36.00
2022-11-15T06:09:59.430Z,44.00
2022-11-15T06:10:59.417Z,52.00
2022-11-15T06:11:59.431Z,56.00
2022-11-15T06:12:59.393Z,64.00
2022-11-15T06:13:59.389Z,68.00
2022-11-15T06:14:59.377Z,80.00
2022-11-15T06:15:59.359Z,88.00
2022-11-15T06:16:59.363Z,96.00
2022-11-15T06:17:59.355Z,104.00
2022-11-15T06:18:59.346Z,116.00
2022-11-15T06:19:59.316Z,128.00
2022-11-15T06:20:59.309Z,140.00
2022-11-15T06:21:59.294Z,152.00
2022-11-15T06:22:59.284Z,168.00
2022-11-15T06:23:59.280Z,184.00
2022-11-15T06:25:04.950Z,196.00
2022-11-15T06:26:00.255Z,212.00
2022-11-15T06:26:59.240Z,228.00
2022-11-15T06:27:59.244Z,244.00
2022-11-15T06:28:59.243Z,268.00
2022-11-15T06:29:59.211Z,284.00
2022-11-15T06:30:59.197Z,308.00
2022-11-15T06:31:59.185Z,324.00
2022-11-15T06:32:59.199Z,348.00
2022-11-15T06:33:59.177Z,368.00
2022-11-15T06:34:59.161Z,392.00
2022-11-15T06:35:59.148Z,416.00
2022-11-15T06:36:59.164Z,444.00
2022-11-15T06:37:59.121Z,472.00
2022-11-15T06:38:59.133Z,504.00
2022-11-15T06:39:59.099Z,532.00
2022-11-15T06:40:59.090Z,568.00
2022-11-15T06:41:59.115Z,608.00
2022-11-15T06:42:59.085Z,644.00
2022-11-15T06:43:59.076Z,684.00
2022-11-15T06:44:59.047Z,728.00
2022-11-15T06:45:59.037Z,776.00
2022-11-15T06:46:59.022Z,828.00
2022-11-15T06:47:59.036Z,888.00
2022-11-15T06:48:59.004Z,956.00
2022-11-15T06:49:58.994Z,1000.00
2022-11-15T06:50:58.986Z,1068.00
2022-11-15T06:51:58.973Z,1144.00
2022-11-15T06:52:58.973Z,1216.00
2022-11-15T06:53:58.952Z,1320.00
2022-11-15T06:54:58.939Z,1424.00
2022-11-15T06:55:58.924Z,1520.00
2022-11-15T06:56:58.921Z,1664.00
2022-11-15T06:57:58.915Z,1820.00
2022-11-15T06:58:58.898Z,1856.00
2022-11-15T06:59:58.898Z,1836.00
2022-11-15T07:00:58.893Z,2028.00
2022-11-15T07:01:58.860Z,2296.00
2022-11-15T07:02:58.865Z,2600.00
2022-11-15T07:03:58.863Z,2852.00
2022-11-15T07:04:58.852Z,2840.00
2022-11-15T07:06:04.195Z,2756.00
2022-11-15T07:06:59.919Z,2704.00
2022-11-15T07:07:58.798Z,2616.00
2022-11-15T07:08:58.797Z,2640.00
2022-11-15T07:09:58.773Z,2756.00
2022-11-15T07:10:58.764Z,3108.00
2022-11-15T07:12:02.020Z,4664.00
2022-11-15T07:12:59.740Z,4796.00
2022-11-15T07:13:58.740Z,3996.00
2022-11-15T07:14:58.725Z,3884.00
2022-11-15T07:15:58.723Z,3852.00
2022-11-15T07:16:58.699Z,4356.00
2022-11-15T07:17:58.688Z,4816.00
2022-11-15T07:18:58.694Z,4792.00
2022-11-15T07:19:58.665Z,6520.00
2022-11-15T07:20:58.655Z,7608.00
2022-11-15T07:21:58.649Z,7892.00
2022-11-15T07:22:58.634Z,8592.00
2022-11-15T07:23:58.642Z,9756.00
2022-11-15T07:24:58.612Z,11808.00
2022-11-15T07:25:58.603Z,13760.00
2022-11-15T07:26:58.595Z,15040.00
2022-11-15T07:27:58.578Z,16416.00
2022-11-15T07:28:58.582Z,17344.00
2022-11-15T07:29:58.557Z,17792.00
2022-11-15T07:30:58.547Z,18496.00
2022-11-15T07:31:58.550Z,18624.00
2022-11-15T07:32:58.525Z,18976.00
2022-11-15T07:33:58.539Z,18816.00
2022-11-15T07:34:58.503Z,16864.00
2022-11-15T07:35:58.490Z,17472.00
2022-11-15T07:36:58.481Z,20000.00
2022-11-15T07:37:58.573Z,21792.00
2022-11-15T07:38:58.476Z,22720.00
2022-11-15T07:39:58.453Z,22464.00
2022-11-15T07:40:58.440Z,20640.00
2022-11-15T07:41:58.424Z,19104.00
2022-11-15T07:42:58.415Z,20928.00
2022-11-15T07:43:58.416Z,19584.00
2022-11-15T07:44:58.396Z,17312.00
2022-11-15T07:45:59.563Z,18816.00
2022-11-15T07:46:58.441Z,18976.00
2022-11-15T07:47:58.374Z,20672.00
2022-11-15T07:48:58.362Z,25152.00
2022-11-15T07:49:58.335Z,22464.00
2022-11-15T07:50:58.332Z,21536.00
2022-11-15T07:51:58.312Z,22208.00
2022-11-15T07:52:58.306Z,21664.00
2022-11-15T07:53:58.310Z,21376.00
2022-11-15T07:54:58.284Z,17856.00
2022-11-15T07:55:58.270Z,17344.00
2022-11-15T07:57:02.457Z,20288.00
2022-11-15T07:57:59.246Z,22400.00
2022-11-15T07:58:58.251Z,23104.00
2022-11-15T07:59:58.228Z,20832.00
2022-11-15T08:00:58.315Z,17920.00
2022-11-15T08:01:58.305Z,15872.00
2022-11-15T08:02:58.348Z,14592.00
2022-11-15T08:03:58.213Z,13572.00
2022-11-15T08:04:58.191Z,13360.00
2022-11-15T08:05:58.192Z,11708.00
2022-11-15T08:06:58.201Z,9420.00
2022-11-15T08:07:58.177Z,11204.00
2022-11-15T08:08:58.151Z,15200.00
2022-11-15T08:09:58.129Z,16288.00
2022-11-15T08:10:58.107Z,16928.00
2022-11-15T08:12:05.776Z,18848.00
2022-11-15T08:12:58.111Z,19584.00
2022-11-15T08:13:58.069Z,17248.00
2022-11-15T08:14:58.083Z,13784.00
2022-11-15T08:15:58.046Z,16608.00
2022-11-15T08:16:58.036Z,19008.00
2022-11-15T08:17:58.025Z,11420.00
2022-11-15T08:18:58.101Z,8228.00
2022-11-15T08:19:58.048Z,15296.00
2022-11-15T08:20:57.993Z,22880.00
2022-11-15T08:21:57.980Z,24608.00
2022-11-15T08:22:57.972Z,27232.00
2022-11-15T08:23:57.959Z,29088.00
2022-11-15T08:24:57.959Z,22048.00
2022-11-15T08:25:57.950Z,10544.00
2022-11-15T08:27:05.038Z,7204.00
2022-11-15T08:27:57.915Z,15232.00
2022-11-15T08:28:57.911Z,31872.00
2022-11-15T08:29:59.562Z,37568.00
2022-11-15T08:30:57.882Z,30272.00
2022-11-15T08:31:57.885Z,15712.00
2022-11-15T08:32:57.916Z,7908.00
2022-11-15T08:33:57.847Z,15488.00
2022-11-15T08:34:57.852Z,27616.00
2022-11-15T08:35:57.841Z,31264.00
2022-11-15T08:36:57.819Z,28448.00
2022-11-15T08:37:57.804Z,20640.00
2022-11-15T08:38:57.805Z,21984.00
2022-11-15T08:39:57.809Z,18944.00
2022-11-15T08:40:57.773Z,14368.00
2022-11-15T08:41:57.760Z,17088.00
2022-11-15T08:42:57.751Z,22624.00
2022-11-15T08:43:57.737Z,21568.00
2022-11-15T08:44:57.780Z,23616.00
2022-11-15T08:45:57.717Z,26880.00
2022-11-15T08:46:57.711Z,25024.00
2022-11-15T08:47:57.693Z,20192.00
2022-11-15T08:48:57.684Z,15360.00
2022-11-15T08:49:57.683Z,12756.00
2022-11-15T08:50:57.666Z,14484.00
2022-11-15T08:51:57.669Z,17472.00
2022-11-15T08:52:57.679Z,18784.00
2022-11-15T08:53:57.628Z,19936.00
2022-11-15T08:54:57.624Z,18272.00
2022-11-15T08:55:57.605Z,26144.00
2022-11-15T08:56:57.613Z,34432.00
2022-11-15T08:57:57.582Z,33568.00
2022-11-15T08:58:57.573Z,37888.00
2022-11-15T08:59:57.573Z,35776.00
2022-11-15T09:00:57.551Z,41056.00
2022-11-15T09:01:57.645Z,44800.00
2022-11-15T09:02:57.532Z,49344.00
2022-11-15T09:03:57.519Z,46464.00
2022-11-15T09:04:57.519Z,39168.00
2022-11-15T09:05:57.510Z,37024.00
2022-11-15T09:06:57.602Z,39360.00
2022-11-15T09:07:57.504Z,38976.00
2022-11-15T09:08:57.539Z,36672.00
2022-11-15T09:09:57.463Z,34816.00
2022-11-15T09:10:57.446Z,39264.00
2022-11-15T09:12:01.304Z,41184.00
2022-11-15T09:12:58.421Z,43680.00
2022-11-15T09:13:57.411Z,47840.00
2022-11-15T09:14:57.418Z,44768.00
2022-11-15T09:15:57.392Z,50944.00
2022-11-15T09:16:57.378Z,61888.00
2022-11-15T09:17:57.367Z,58496.00
2022-11-15T09:18:57.355Z,54048.00
2022-11-15T09:19:57.354Z,53696.00
2022-11-15T09:20:57.334Z,46272.00
2022-11-15T09:21:57.323Z,39424.00
2022-11-15T09:22:57.311Z,45216.00
2022-11-15T09:23:57.320Z,47104.00
2022-11-15T09:24:57.305Z,48128.00
2022-11-15T09:25:57.309Z,55616.00
2022-11-15T09:26:57.268Z,56608.00
2022-11-15T09:27:57.259Z,57664.00
2022-11-15T09:28:57.245Z,63360.00
2022-11-15T09:29:57.246Z,65600.00
2022-11-15T09:30:57.226Z,70624.00
2022-11-15T09:31:57.213Z,67712.00
2022-11-15T09:32:57.203Z,68928.00
2022-11-15T09:33:57.194Z,70976.00
2022-11-15T09:34:57.195Z,72000.00
2022-11-15T09:35:57.181Z,73120.00
2022-11-15T09:36:57.167Z,74784.00
2022-11-15T09:37:57.150Z,73056.00
2022-11-15T09:38:57.152Z,72000.00
2022-11-15T09:39:57.159Z,71424.00
2022-11-15T09:40:57.119Z,73088.00
2022-11-15T09:41:57.110Z,71584.00
2022-11-15T09:42:57.096Z,73184.00
2022-11-15T09:43:57.088Z,73440.00
2022-11-15T09:44:57.105Z,74880.00
2022-11-15T09:45:57.067Z,74496.00
2022-11-15T09:46:57.055Z,75648.00
2022-11-15T09:47:57.044Z,76576.00
2022-11-15T09:48:57.036Z,75456.00
2022-11-15T09:49:58.085Z,75456.00
2022-11-15T09:50:57.012Z,75904.00
2022-11-15T09:51:57.009Z,76288.00
2022-11-15T09:52:56.989Z,73696.00
2022-11-15T09:54:30.850Z,74720.00
2022-11-15T09:54:57.980Z,74816.00
2022-11-15T09:55:56.977Z,75200.00
2022-11-15T09:56:56.948Z,74400.00
2022-11-15T09:57:56.940Z,77024.00
2022-11-15T09:58:56.930Z,75488.00
2022-11-15T09:59:56.929Z,75424.00
2022-11-15T10:00:56.972Z,77440.00
2022-11-15T10:01:56.898Z,75360.00
2022-11-15T10:02:56.885Z,76864.00
2022-11-15T10:03:56.876Z,76128.00
2022-11-15T10:04:56.873Z,75648.00
2022-11-15T10:05:56.855Z,75680.00
2022-11-15T10:06:56.874Z,76544.00
2022-11-15T10:07:56.836Z,74784.00
2022-11-15T10:08:56.828Z,71552.00
2022-11-15T10:09:56.824Z,69568.00
2022-11-15T10:11:15.884Z,68064.00
2022-11-15T10:11:57.821Z,69728.00
2022-11-15T10:12:56.784Z,73216.00
2022-11-15T10:13:56.776Z,74240.00
2022-11-15T10:14:56.774Z,74688.00
2022-11-15T10:15:56.754Z,74656.00
2022-11-15T10:16:56.742Z,72256.00
2022-11-15T10:17:56.739Z,57280.00
2022-11-15T10:18:56.731Z,22816.00
2022-11-15T10:19:59.675Z,6352.00
2022-11-15T10:20:57.705Z,5956.00
2022-11-15T10:21:56.693Z,5776.00
2022-11-15T10:22:56.682Z,5680.00
2022-11-15T10:23:56.672Z,5592.00
2022-11-15T10:24:56.677Z,5500.00
2022-11-15T10:25:56.651Z,5424.00
2022-11-15T10:26:56.638Z,5392.00
2022-11-15T10:27:56.666Z,5380.00
2022-11-15T10:28:56.623Z,5272.00
2022-11-15T10:29:56.617Z,5204.00
2022-11-15T10:30:56.597Z,5132.00
2022-11-15T10:31:56.595Z,5096.00
2022-11-15T10:32:56.575Z,5056.00
2022-11-15T10:33:56.565Z,5016.00
2022-11-15T10:34:56.564Z,4968.00
2022-11-15T10:35:56.543Z,4928.00
2022-11-15T10:36:56.540Z,4916.00
2022-11-15T10:37:56.521Z,4816.00
2022-11-15T10:38:56.508Z,4812.00
2022-11-15T10:39:56.507Z,4740.00
2022-11-15T10:40:56.490Z,4732.00
2022-11-15T10:41:56.479Z,4752.00
2022-11-15T10:42:56.464Z,4720.00
2022-11-15T10:43:56.472Z,4700.00
2022-11-15T10:44:56.450Z,4620.00
2022-11-15T10:45:56.434Z,4612.00
2022-11-15T10:46:56.426Z,4624.00
2022-11-15T10:47:56.412Z,4636.00
2022-11-15T10:48:56.409Z,4628.00
2022-11-15T10:49:56.402Z,4576.00
2022-11-15T10:50:56.381Z,4544.00
2022-11-15T10:51:56.367Z,4500.00
2022-11-15T10:52:56.358Z,4460.00
2022-11-15T10:53:56.347Z,4404.00
2022-11-15T10:54:56.351Z,4384.00
2022-11-15T10:55:56.324Z,4368.00
2022-11-15T10:56:56.313Z,4336.00
2022-11-15T10:57:56.313Z,4300.00
2022-11-15T10:58:56.289Z,4276.00
2022-11-15T10:59:56.320Z,4264.00
2022-11-15T11:00:56.347Z,4248.00
2022-11-15T11:01:56.259Z,4224.00
2022-11-15T11:02:56.247Z,4180.00
2022-11-15T11:03:56.238Z,4156.00
2022-11-15T11:04:56.240Z,4116.00
2022-11-15T11:05:56.226Z,4080.00
2022-11-15T11:06:56.298Z,4036.00
2022-11-15T11:07:56.193Z,4004.00
2022-11-15T11:08:56.184Z,3996.00
2022-11-15T11:09:56.172Z,3964.00
2022-11-15T11:11:02.040Z,3964.00
2022-11-15T11:11:57.148Z,3916.00
2022-11-15T11:12:56.137Z,3920.00
2022-11-15T11:13:56.131Z,3884.00
2022-11-15T11:14:56.114Z,3876.00
2022-11-15T11:15:56.142Z,3836.00
2022-11-15T11:16:56.096Z,3824.00
2022-11-15T11:17:56.091Z,3792.00
2022-11-15T11:18:56.070Z,3748.00
2022-11-15T11:19:56.065Z,3708.00
2022-11-15T11:20:56.081Z,3712.00
2022-11-15T11:21:56.040Z,3700.00
2022-11-15T11:22:56.026Z,3708.00
2022-11-15T11:23:56.018Z,3692.00
2022-11-15T11:24:56.006Z,3676.00
2022-11-15T11:25:56.007Z,3652.00
2022-11-15T11:26:57.276Z,3644.00
2022-11-15T11:27:55.976Z,3628.00
2022-11-15T11:28:55.974Z,3604.00
2022-11-15T11:29:55.953Z,3608.00
2022-11-15T11:30:55.948Z,3532.00
2022-11-15T11:31:55.945Z,3496.00
2022-11-15T11:32:55.919Z,3508.00
2022-11-15T11:33:55.910Z,3504.00
2022-11-15T11:34:55.926Z,3492.00
2022-11-15T11:35:55.892Z,3528.00
2022-11-15T11:36:55.872Z,3452.00
2022-11-15T11:37:55.865Z,3432.00
2022-11-15T11:38:56.159Z,3384.00
2022-11-15T11:39:55.845Z,3364.00
2022-11-15T11:40:55.839Z,3340.00
2022-11-15T11:41:55.836Z,3308.00
2022-11-15T11:42:55.811Z,3308.00
2022-11-15T11:43:55.801Z,3264.00
2022-11-15T11:44:55.787Z,3256.00
2022-11-15T11:45:55.813Z,3252.00
2022-11-15T11:46:55.763Z,3236.00
2022-11-15T11:47:55.772Z,3188.00
2022-11-15T11:48:55.743Z,3176.00
2022-11-15T11:49:55.733Z,3116.00
2022-11-15T11:50:55.734Z,3096.00
2022-11-15T11:51:55.713Z,3096.00
2022-11-15T11:52:58.392Z,3072.00
2022-11-15T11:53:56.688Z,3044.00
2022-11-15T11:54:55.679Z,2940.00
2022-11-15T11:55:55.691Z,3008.00
2022-11-15T11:56:55.656Z,2964.00
2022-11-15T11:57:55.646Z,2964.00
2022-11-15T11:58:55.632Z,2940.00
2022-11-15T11:59:55.622Z,2896.00
2022-11-15T12:00:55.649Z,2868.00
2022-11-15T12:01:55.773Z,2860.00
2022-11-15T12:02:55.695Z,2844.00
2022-11-15T12:03:55.598Z,2832.00
2022-11-15T12:04:55.574Z,2788.00
2022-11-15T12:05:55.568Z,2772.00
2022-11-15T12:06:55.639Z,2748.00
2022-11-15T12:07:55.535Z,2736.00
2022-11-15T12:08:55.523Z,2692.00
2022-11-15T12:09:55.530Z,2676.00
2022-11-15T12:10:55.515Z,2668.00
2022-11-15T12:11:55.493Z,2656.00
2022-11-15T12:12:55.480Z,2664.00
2022-11-15T12:13:55.470Z,2616.00
2022-11-15T12:14:55.457Z,2568.00
2022-11-15T12:15:55.460Z,2560.00
2022-11-15T12:16:55.444Z,2556.00
2022-11-15T12:17:55.428Z,2548.00
2022-11-15T12:18:55.415Z,2548.00
2022-11-15T12:19:55.419Z,2508.00
2022-11-15T12:20:55.402Z,2560.00
2022-11-15T12:21:55.386Z,2468.00
2022-11-15T12:22:55.369Z,2468.00
2022-11-15T12:23:55.360Z,2436.00
2022-11-15T12:24:55.347Z,2440.00
2022-11-15T12:25:55.354Z,2488.00
2022-11-15T12:26:55.325Z,2388.00
2022-11-15T12:27:55.316Z,2380.00
2022-11-15T12:29:06.919Z,2344.00
2022-11-15T12:29:56.292Z,2340.00
2022-11-15T12:30:55.294Z,2308.00
2022-11-15T12:31:55.275Z,2308.00
2022-11-15T12:32:55.259Z,2296.00
2022-11-15T12:33:55.254Z,2268.00
2022-11-15T12:34:55.242Z,2240.00